| Date | Time | Temp. (oF) | Dew Point (oF) | Rel. Hum. (%) | Press. (in.) | Wind Dir. | Wind Speed (mph) | Hourly Rainfall (in.) |
|
|---|---|---|---|---|---|---|---|---|---|
| 1 | 02/15 | 00:00 | 10 | -2 | 56 | 29.75 | W | 34 | 0.00 |
| 2 | 02/14 | 23:00 | 13 | 5 | 71 | 29.70 | WNW | 16 | 0.00 |
| 3 | 02/14 | 22:00 | 18 | 11 | 75 | 29.64 | W | 24 | 0.00 |
| 4 | 02/14 | 21:00 | 23 | 19 | 87 | 29.59 | ENE | 7 | 0.00 |
| 5 | 02/14 | 20:00 | 26 | 24 | 95 | 29.50 | WSW | 10 | 0.00 |
| 6 | 02/14 | 19:00 | 26 | 22 | 86 | 29.48 | NNW | 0 | 0.00 |
| 7 | 02/14 | 18:00 | 27 | 20 | 75 | 29.47 | NNW | 2 | 0.00 |
| 8 | 02/14 | 17:00 | 28 | 18 | 67 | 29.50 | NNW | 3 | 0.00 |
| 9 | 02/14 | 16:00 | 27 | 18 | 71 | 29.51 | SSW | 6 | 0.00 |
| 10 | 02/14 | 15:00 | 26 | 16 | 68 | 29.55 | NNW | 7 | 0.00 |
| 11 | 02/14 | 14:00 | 26 | 13 | 60 | 29.57 | NW | 8 | 0.00 |
| 12 | 02/14 | 13:00 | 25 | 11 | 56 | 29.63 | NNW | 7 | 0.00 |
| 13 | 02/14 | 12:00 | 24 | 10 | 56 | 29.69 | NNW | 6 | 0.00 |
| 14 | 02/14 | 11:00 | 23 | 10 | 58 | 29.74 | NW | 4 | 0.00 |
| 15 | 02/14 | 10:00 | 21 | 9 | 60 | 29.79 | SW | 4 | 0.00 |
| 16 | 02/14 | 09:00 | 20 | 8 | 60 | 29.84 | NW | 4 | 0.00 |
| 17 | 02/14 | 08:00 | 20 | 8 | 60 | 29.87 | WSW | 4 | 0.00 |
| 18 | 02/14 | 07:00 | 19 | 7 | 60 | 29.90 | NNW | 11 | 0.00 |
| 19 | 02/14 | 06:00 | 20 | 7 | 57 | 29.92 | NNW | 3 | 0.00 |
| 20 | 02/14 | 05:00 | 18 | 6 | 61 | 29.96 | NNW | 0 | 0.00 |
| 21 | 02/14 | 04:00 | 17 | 5 | 61 | 30.00 | NNW | 4 | 0.00 |
| 22 | 02/14 | 03:00 | 15 | 9 | 77 | 30.02 | NNW | 4 | 0.00 |
| 23 | 02/14 | 02:00 | 14 | 8 | 77 | 30.05 | NW | 0 | 0.00 |
| 24 | 02/14 | 01:00 | 15 | 8 | 75 | 30.08 | N | 0 | 0.00 |